sensor_id;sensor_type;location;lat;lon;timestamp;temperature;humidity
22071;DHT22;11200;51.488;6.668;2022-09-09T00:01:11;16.80;99.90
22071;DHT22;11200;51.488;6.668;2022-09-09T00:06:31;16.80;99.90
22071;DHT22;11200;51.488;6.668;2022-09-09T00:11:54;16.70;99.90
22071;DHT22;11200;51.488;6.668;2022-09-09T00:14:34;16.70;99.90
22071;DHT22;11200;51.488;6.668;2022-09-09T00:17:08;16.70;99.90
22071;DHT22;11200;51.488;6.668;2022-09-09T00:22:21;16.70;99.90
22071;DHT22;11200;51.488;6.668;2022-09-09T00:25:08;16.70;99.90
22071;DHT22;11200;51.488;6.668;2022-09-09T00:27:44;16.60;99.90
22071;DHT22;11200;51.488;6.668;2022-09-09T00:33:10;16.60;99.90
22071;DHT22;11200;51.488;6.668;2022-09-09T00:35:43;16.60;99.90
22071;DHT22;11200;51.488;6.668;2022-09-09T00:38:47;16.50;99.90
22071;DHT22;11200;51.488;6.668;2022-09-09T00:41:36;16.50;99.90
22071;DHT22;11200;51.488;6.668;2022-09-09T00:44:30;16.50;99.90
22071;DHT22;11200;51.488;6.668;2022-09-09T00:52:22;16.40;99.90
22071;DHT22;11200;51.488;6.668;2022-09-09T00:55:18;16.40;99.90
22071;DHT22;11200;51.488;6.668;2022-09-09T00:57:50;16.30;99.90
22071;DHT22;11200;51.488;6.668;2022-09-09T01:00:26;16.40;99.90
22071;DHT22;11200;51.488;6.668;2022-09-09T01:10:58;16.30;99.90
22071;DHT22;11200;51.488;6.668;2022-09-09T01:13:34;16.30;99.90
22071;DHT22;11200;51.488;6.668;2022-09-09T01:16:04;16.30;99.90
22071;DHT22;11200;51.488;6.668;2022-09-09T01:18:36;16.20;99.90
22071;DHT22;11200;51.488;6.668;2022-09-09T01:21:42;16.60;99.90
22071;DHT22;11200;51.488;6.668;2022-09-09T01:24:38;16.20;99.90
22071;DHT22;11200;51.488;6.668;2022-09-09T01:27:06;16.10;99.90
22071;DHT22;11200;51.488;6.668;2022-09-09T01:29:32;16.20;99.90
22071;DHT22;11200;51.488;6.668;2022-09-09T01:32:00;16.10;99.90
22071;DHT22;11200;51.488;6.668;2022-09-09T01:34:36;16.10;99.90
22071;DHT22;11200;51.488;6.668;2022-09-09T01:39:30;16.10;99.90
22071;DHT22;11200;51.488;6.668;2022-09-09T01:41:57;16.10;99.90
22071;DHT22;11200;51.488;6.668;2022-09-09T01:44:24;16.10;99.90
22071;DHT22;11200;51.488;6.668;2022-09-09T01:46:51;16.10;99.90
22071;DHT22;11200;51.488;6.668;2022-09-09T01:49:17;16.00;99.90
22071;DHT22;11200;51.488;6.668;2022-09-09T01:51:48;16.10;99.90
22071;DHT22;11200;51.488;6.668;2022-09-09T01:54:14;16.00;99.90
22071;DHT22;11200;51.488;6.668;2022-09-09T01:59:37;16.00;99.90
22071;DHT22;11200;51.488;6.668;2022-09-09T02:02:19;16.00;99.90
22071;DHT22;11200;51.488;6.668;2022-09-09T02:04:54;16.00;99.90
22071;DHT22;11200;51.488;6.668;2022-09-09T02:07:39;16.00;99.90
22071;DHT22;11200;51.488;6.668;2022-09-09T02:10:17;16.00;99.90
22071;DHT22;11200;51.488;6.668;2022-09-09T02:12:48;16.00;99.90
22071;DHT22;11200;51.488;6.668;2022-09-09T02:16:08;16.00;99.90
22071;DHT22;11200;51.488;6.668;2022-09-09T02:18:10;15.90;99.90
22071;DHT22;11200;51.488;6.668;2022-09-09T02:20:38;15.90;99.90
22071;DHT22;11200;51.488;6.668;2022-09-09T02:23:06;15.90;99.90
22071;DHT22;11200;51.488;6.668;2022-09-09T02:25:34;15.90;99.90
22071;DHT22;11200;51.488;6.668;2022-09-09T02:28:02;16.00;99.90
22071;DHT22;11200;51.488;6.668;2022-09-09T02:30:32;15.90;99.90
22071;DHT22;11200;51.488;6.668;2022-09-09T02:33:01;15.90;99.90
22071;DHT22;11200;51.488;6.668;2022-09-09T02:35:30;15.90;99.90
22071;DHT22;11200;51.488;6.668;2022-09-09T02:38:02;15.90;99.90
22071;DHT22;11200;51.488;6.668;2022-09-09T02:40:29;15.80;99.90
22071;DHT22;11200;51.488;6.668;2022-09-09T02:42:55;16.00;99.90
22071;DHT22;11200;51.488;6.668;2022-09-09T02:45:25;15.90;99.90
22071;DHT22;11200;51.488;6.668;2022-09-09T02:48:20;15.90;99.90
22071;DHT22;11200;51.488;6.668;2022-09-09T02:54:00;15.90;99.90
22071;DHT22;11200;51.488;6.668;2022-09-09T02:56:32;15.90;99.90
22071;DHT22;11200;51.488;6.668;2022-09-09T02:59:04;15.80;99.90
22071;DHT22;11200;51.488;6.668;2022-09-09T03:01:29;15.80;99.90
22071;DHT22;11200;51.488;6.668;2022-09-09T03:03:55;15.80;99.90
22071;DHT22;11200;51.488;6.668;2022-09-09T03:06:20;15.80;99.90
22071;DHT22;11200;51.488;6.668;2022-09-09T03:08:47;15.80;99.90
22071;DHT22;11200;51.488;6.668;2022-09-09T03:11:15;15.80;99.90
22071;DHT22;11200;51.488;6.668;2022-09-09T03:13:41;15.80;99.90
22071;DHT22;11200;51.488;6.668;2022-09-09T03:16:06;15.80;99.90
22071;DHT22;11200;51.488;6.668;2022-09-09T03:18:32;15.70;99.90
22071;DHT22;11200;51.488;6.668;2022-09-09T03:20:58;15.70;99.90
22071;DHT22;11200;51.488;6.668;2022-09-09T03:23:24;15.70;99.90
22071;DHT22;11200;51.488;6.668;2022-09-09T03:25:50;15.70;99.90
22071;DHT22;11200;51.488;6.668;2022-09-09T03:28:16;15.60;99.90
22071;DHT22;11200;51.488;6.668;2022-09-09T03:30:42;15.70;99.90
22071;DHT22;11200;51.488;6.668;2022-09-09T03:33:07;15.60;99.90
22071;DHT22;11200;51.488;6.668;2022-09-09T03:35:33;15.70;99.90
22071;DHT22;11200;51.488;6.668;2022-09-09T03:37:58;15.70;99.90
22071;DHT22;11200;51.488;6.668;2022-09-09T03:40:26;15.70;99.90
22071;DHT22;11200;51.488;6.668;2022-09-09T03:42:52;15.70;99.90
22071;DHT22;11200;51.488;6.668;2022-09-09T03:45:18;15.80;99.90
22071;DHT22;11200;51.488;6.668;2022-09-09T03:47:43;15.70;99.90
22071;DHT22;11200;51.488;6.668;2022-09-09T03:50:09;15.70;99.90
22071;DHT22;11200;51.488;6.668;2022-09-09T03:52:40;15.60;99.90
22071;DHT22;11200;51.488;6.668;2022-09-09T03:55:07;15.70;99.90
22071;DHT22;11200;51.488;6.668;2022-09-09T03:57:34;15.70;99.90
22071;DHT22;11200;51.488;6.668;2022-09-09T04:00:05;15.80;99.90
22071;DHT22;11200;51.488;6.668;2022-09-09T04:02:31;15.70;99.90
22071;DHT22;11200;51.488;6.668;2022-09-09T04:04:56;15.60;99.90
22071;DHT22;11200;51.488;6.668;2022-09-09T04:07:22;15.60;99.90
22071;DHT22;11200;51.488;6.668;2022-09-09T04:09:48;15.90;99.90
22071;DHT22;11200;51.488;6.668;2022-09-09T04:12:13;15.70;99.90
22071;DHT22;11200;51.488;6.668;2022-09-09T04:14:39;15.70;99.90
22071;DHT22;11200;51.488;6.668;2022-09-09T04:17:05;15.60;99.90
22071;DHT22;11200;51.488;6.668;2022-09-09T04:19:32;15.70;99.90
22071;DHT22;11200;51.488;6.668;2022-09-09T04:21:59;15.60;99.90
22071;DHT22;11200;51.488;6.668;2022-09-09T04:24:25;15.70;99.90
22071;DHT22;11200;51.488;6.668;2022-09-09T04:26:52;15.70;99.90
22071;DHT22;11200;51.488;6.668;2022-09-09T04:29:18;15.70;99.90
22071;DHT22;11200;51.488;6.668;2022-09-09T04:31:43;15.80;99.90
22071;DHT22;11200;51.488;6.668;2022-09-09T04:34:09;15.70;99.90
22071;DHT22;11200;51.488;6.668;2022-09-09T04:36:35;15.70;99.90
22071;DHT22;11200;51.488;6.668;2022-09-09T04:39:01;15.80;99.90
22071;DHT22;11200;51.488;6.668;2022-09-09T04:41:27;15.70;99.90
22071;DHT22;11200;51.488;6.668;2022-09-09T04:43:54;15.70;99.90
22071;DHT22;11200;51.488;6.668;2022-09-09T04:46:20;15.90;99.90
22071;DHT22;11200;51.488;6.668;2022-09-09T04:48:46;15.80;99.90
22071;DHT22;11200;51.488;6.668;2022-09-09T04:51:13;15.80;99.90
22071;DHT22;11200;51.488;6.668;2022-09-09T04:53:39;15.70;99.90
22071;DHT22;11200;51.488;6.668;2022-09-09T04:56:13;16.20;99.90
22071;DHT22;11200;51.488;6.668;2022-09-09T04:58:40;15.90;99.90
22071;DHT22;11200;51.488;6.668;2022-09-09T05:01:26;15.80;99.90
22071;DHT22;11200;51.488;6.668;2022-09-09T05:03:52;15.80;99.90
22071;DHT22;11200;51.488;6.668;2022-09-09T05:06:20;15.80;99.90
22071;DHT22;11200;51.488;6.668;2022-09-09T05:08:46;15.80;99.90
22071;DHT22;11200;51.488;6.668;2022-09-09T05:11:17;15.80;99.90
22071;DHT22;11200;51.488;6.668;2022-09-09T05:13:44;15.90;99.90
22071;DHT22;11200;51.488;6.668;2022-09-09T05:16:10;16.00;99.90
22071;DHT22;11200;51.488;6.668;2022-09-09T05:18:39;15.80;99.90
22071;DHT22;11200;51.488;6.668;2022-09-09T05:21:05;15.90;99.90
22071;DHT22;11200;51.488;6.668;2022-09-09T05:23:32;16.20;99.90
22071;DHT22;11200;51.488;6.668;2022-09-09T05:25:59;15.80;99.90
22071;DHT22;11200;51.488;6.668;2022-09-09T05:28:25;16.00;99.90
22071;DHT22;11200;51.488;6.668;2022-09-09T05:30:59;15.90;99.90
22071;DHT22;11200;51.488;6.668;2022-09-09T05:33:26;15.90;99.90
22071;DHT22;11200;51.488;6.668;2022-09-09T05:35:57;15.90;99.90
22071;DHT22;11200;51.488;6.668;2022-09-09T05:38:23;15.90;99.90
22071;DHT22;11200;51.488;6.668;2022-09-09T05:40:51;15.90;99.90
22071;DHT22;11200;51.488;6.668;2022-09-09T05:43:18;15.90;99.90
22071;DHT22;11200;51.488;6.668;2022-09-09T05:45:45;15.80;99.90
22071;DHT22;11200;51.488;6.668;2022-09-09T05:48:13;15.90;99.90
22071;DHT22;11200;51.488;6.668;2022-09-09T05:50:38;15.90;99.90
22071;DHT22;11200;51.488;6.668;2022-09-09T05:53:04;15.90;99.90
22071;DHT22;11200;51.488;6.668;2022-09-09T05:55:30;15.80;99.90
22071;DHT22;11200;51.488;6.668;2022-09-09T05:57:56;15.90;99.90
22071;DHT22;11200;51.488;6.668;2022-09-09T06:00:21;15.90;99.90
22071;DHT22;11200;51.488;6.668;2022-09-09T06:02:51;16.00;99.90
22071;DHT22;11200;51.488;6.668;2022-09-09T06:05:18;15.90;99.90
22071;DHT22;11200;51.488;6.668;2022-09-09T06:07:43;15.80;99.90
22071;DHT22;11200;51.488;6.668;2022-09-09T06:10:10;15.90;99.90
22071;DHT22;11200;51.488;6.668;2022-09-09T06:12:39;15.90;99.90
22071;DHT22;11200;51.488;6.668;2022-09-09T06:15:05;15.90;99.90
22071;DHT22;11200;51.488;6.668;2022-09-09T06:17:30;15.90;99.90
22071;DHT22;11200;51.488;6.668;2022-09-09T06:19:56;15.90;99.90
22071;DHT22;11200;51.488;6.668;2022-09-09T06:22:22;16.00;99.90
22071;DHT22;11200;51.488;6.668;2022-09-09T06:24:48;16.00;99.90
22071;DHT22;11200;51.488;6.668;2022-09-09T06:27:13;16.00;99.90
22071;DHT22;11200;51.488;6.668;2022-09-09T06:29:39;16.00;99.90
22071;DHT22;11200;51.488;6.668;2022-09-09T06:32:05;16.00;99.90
22071;DHT22;11200;51.488;6.668;2022-09-09T06:34:30;16.00;99.90
22071;DHT22;11200;51.488;6.668;2022-09-09T06:36:56;16.00;99.90
22071;DHT22;11200;51.488;6.668;2022-09-09T06:39:23;16.00;99.90
22071;DHT22;11200;51.488;6.668;2022-09-09T06:41:49;16.00;99.90
22071;DHT22;11200;51.488;6.668;2022-09-09T06:44:15;16.10;99.90
22071;DHT22;11200;51.488;6.668;2022-09-09T06:46:41;16.10;99.90
22071;DHT22;11200;51.488;6.668;2022-09-09T06:49:08;16.20;99.90
22071;DHT22;11200;51.488;6.668;2022-09-09T06:51:36;16.10;99.90
22071;DHT22;11200;51.488;6.668;2022-09-09T06:54:03;16.10;99.90
22071;DHT22;11200;51.488;6.668;2022-09-09T06:56:33;16.20;99.90
22071;DHT22;11200;51.488;6.668;2022-09-09T06:59:02;16.20;99.90
22071;DHT22;11200;51.488;6.668;2022-09-09T07:01:32;16.20;99.90
22071;DHT22;11200;51.488;6.668;2022-09-09T07:03:58;16.20;99.90
22071;DHT22;11200;51.488;6.668;2022-09-09T07:06:29;16.30;99.90
22071;DHT22;11200;51.488;6.668;2022-09-09T07:09:03;16.40;99.90
22071;DHT22;11200;51.488;6.668;2022-09-09T07:11:32;16.40;99.90
22071;DHT22;11200;51.488;6.668;2022-09-09T07:13:59;16.60;99.90
22071;DHT22;11200;51.488;6.668;2022-09-09T07:16:25;16.50;99.90
22071;DHT22;11200;51.488;6.668;2022-09-09T07:18:53;16.50;99.90
22071;DHT22;11200;51.488;6.668;2022-09-09T07:21:23;16.60;99.90
22071;DHT22;11200;51.488;6.668;2022-09-09T07:23:50;16.60;99.90
22071;DHT22;11200;51.488;6.668;2022-09-09T07:26:17;16.70;99.90
22071;DHT22;11200;51.488;6.668;2022-09-09T07:28:45;16.70;99.90
22071;DHT22;11200;51.488;6.668;2022-09-09T07:31:20;16.70;99.90
22071;DHT22;11200;51.488;6.668;2022-09-09T07:33:46;16.80;99.90
22071;DHT22;11200;51.488;6.668;2022-09-09T07:36:22;16.80;99.90
22071;DHT22;11200;51.488;6.668;2022-09-09T07:38:50;16.80;99.90
22071;DHT22;11200;51.488;6.668;2022-09-09T07:41:22;16.90;99.90
22071;DHT22;11200;51.488;6.668;2022-09-09T07:43:49;16.90;99.90
22071;DHT22;11200;51.488;6.668;2022-09-09T07:46:18;17.00;99.90
22071;DHT22;11200;51.488;6.668;2022-09-09T07:48:49;17.00;99.90
22071;DHT22;11200;51.488;6.668;2022-09-09T07:51:18;17.00;99.90
22071;DHT22;11200;51.488;6.668;2022-09-09T07:53:46;17.10;99.90
22071;DHT22;11200;51.488;6.668;2022-09-09T07:56:17;17.20;99.90
22071;DHT22;11200;51.488;6.668;2022-09-09T07:58:45;17.20;99.90
22071;DHT22;11200;51.488;6.668;2022-09-09T08:03:38;17.30;99.90
22071;DHT22;11200;51.488;6.668;2022-09-09T08:06:07;17.40;99.90
22071;DHT22;11200;51.488;6.668;2022-09-09T08:08:33;17.40;99.90
22071;DHT22;11200;51.488;6.668;2022-09-09T08:11:11;17.50;99.90
22071;DHT22;11200;51.488;6.668;2022-09-09T08:13:38;17.50;99.90
22071;DHT22;11200;51.488;6.668;2022-09-09T08:16:09;17.60;99.90
22071;DHT22;11200;51.488;6.668;2022-09-09T08:18:35;17.70;99.90
22071;DHT22;11200;51.488;6.668;2022-09-09T08:21:15;17.70;99.90
22071;DHT22;11200;51.488;6.668;2022-09-09T08:23:43;17.80;99.90
22071;DHT22;11200;51.488;6.668;2022-09-09T08:26:13;17.90;99.90
22071;DHT22;11200;51.488;6.668;2022-09-09T08:28:40;18.00;99.90
22071;DHT22;11200;51.488;6.668;2022-09-09T08:31:15;18.20;99.90
22071;DHT22;11200;51.488;6.668;2022-09-09T08:33:42;18.30;99.90
22071;DHT22;11200;51.488;6.668;2022-09-09T08:36:13;18.60;99.90
22071;DHT22;11200;51.488;6.668;2022-09-09T08:38:43;18.80;99.90
22071;DHT22;11200;51.488;6.668;2022-09-09T08:43:38;19.40;99.90
22071;DHT22;11200;51.488;6.668;2022-09-09T08:46:14;19.60;99.90
22071;DHT22;11200;51.488;6.668;2022-09-09T08:48:52;19.80;99.90
22071;DHT22;11200;51.488;6.668;2022-09-09T08:51:20;20.00;99.90
22071;DHT22;11200;51.488;6.668;2022-09-09T08:53:48;20.10;99.90
22071;DHT22;11200;51.488;6.668;2022-09-09T08:56:21;20.10;99.90
22071;DHT22;11200;51.488;6.668;2022-09-09T08:58:50;20.00;99.90
22071;DHT22;11200;51.488;6.668;2022-09-09T09:11:39;19.80;99.90
22071;DHT22;11200;51.488;6.668;2022-09-09T09:14:26;19.70;99.90
22071;DHT22;11200;51.488;6.668;2022-09-09T09:19:24;19.70;99.90
22071;DHT22;11200;51.488;6.668;2022-09-09T09:22:01;19.60;99.90
22071;DHT22;11200;51.488;6.668;2022-09-09T09:27:13;19.60;99.90
22071;DHT22;11200;51.488;6.668;2022-09-09T09:29:40;19.50;99.90
22071;DHT22;11200;51.488;6.668;2022-09-09T09:32:11;19.50;99.90
22071;DHT22;11200;51.488;6.668;2022-09-09T09:34:39;19.50;99.90
22071;DHT22;11200;51.488;6.668;2022-09-09T09:37:20;19.40;99.90
22071;DHT22;11200;51.488;6.668;2022-09-09T09:39:49;19.40;99.90
22071;DHT22;11200;51.488;6.668;2022-09-09T09:42:17;19.30;99.90
22071;DHT22;11200;51.488;6.668;2022-09-09T09:44:43;19.30;99.90
22071;DHT22;11200;51.488;6.668;2022-09-09T09:47:22;19.30;99.90
22071;DHT22;11200;51.488;6.668;2022-09-09T09:49:56;19.30;99.90
22071;DHT22;11200;51.488;6.668;2022-09-09T09:52:25;19.20;99.90
22071;DHT22;11200;51.488;6.668;2022-09-09T09:54:53;19.20;99.90
22071;DHT22;11200;51.488;6.668;2022-09-09T09:57:25;19.30;99.90
22071;DHT22;11200;51.488;6.668;2022-09-09T10:00:21;19.30;99.90
22071;DHT22;11200;51.488;6.668;2022-09-09T10:02:48;19.60;99.90
22071;DHT22;11200;51.488;6.668;2022-09-09T10:05:17;19.80;99.90
22071;DHT22;11200;51.488;6.668;2022-09-09T10:07:43;20.00;99.90
22071;DHT22;11200;51.488;6.668;2022-09-09T10:10:23;20.30;99.90
22071;DHT22;11200;51.488;6.668;2022-09-09T10:13:10;20.50;99.90
22071;DHT22;11200;51.488;6.668;2022-09-09T10:18:38;20.80;99.90
22071;DHT22;11200;51.488;6.668;2022-09-09T10:29:30;21.10;99.90
22071;DHT22;11200;51.488;6.668;2022-09-09T10:43:00;20.90;99.90
22071;DHT22;11200;51.488;6.668;2022-09-09T10:45:35;20.80;99.90
22071;DHT22;11200;51.488;6.668;2022-09-09T10:51:14;20.70;99.90
22071;DHT22;11200;51.488;6.668;2022-09-09T10:56:18;20.50;99.90
22071;DHT22;11200;51.488;6.668;2022-09-09T10:58:54;20.50;99.90
22071;DHT22;11200;51.488;6.668;2022-09-09T11:01:43;20.40;99.90
22071;DHT22;11200;51.488;6.668;2022-09-09T11:04:24;20.40;99.90
22071;DHT22;11200;51.488;6.668;2022-09-09T11:06:56;20.40;99.90
22071;DHT22;11200;51.488;6.668;2022-09-09T11:09:25;20.40;99.90
22071;DHT22;11200;51.488;6.668;2022-09-09T11:11:55;20.40;99.90
22071;DHT22;11200;51.488;6.668;2022-09-09T11:14:39;20.40;99.90
22071;DHT22;11200;51.488;6.668;2022-09-09T11:17:18;20.40;99.90
22071;DHT22;11200;51.488;6.668;2022-09-09T11:19:44;20.40;99.90
22071;DHT22;11200;51.488;6.668;2022-09-09T11:27:57;20.20;99.90
22071;DHT22;11200;51.488;6.668;2022-09-09T11:30:43;20.30;99.90
22071;DHT22;11200;51.488;6.668;2022-09-09T11:38:46;20.30;99.90
22071;DHT22;11200;51.488;6.668;2022-09-09T11:41:13;20.30;99.90
22071;DHT22;11200;51.488;6.668;2022-09-09T11:43:48;20.30;99.90
22071;DHT22;11200;51.488;6.668;2022-09-09T11:46:16;20.30;99.90
22071;DHT22;11200;51.488;6.668;2022-09-09T11:48:44;20.30;99.90
22071;DHT22;11200;51.488;6.668;2022-09-09T11:59:17;20.30;99.90
22071;DHT22;11200;51.488;6.668;2022-09-09T12:01:44;20.30;99.90
22071;DHT22;11200;51.488;6.668;2022-09-09T12:04:26;20.30;99.90
22071;DHT22;11200;51.488;6.668;2022-09-09T12:07:21;20.30;99.90
22071;DHT22;11200;51.488;6.668;2022-09-09T12:09:56;20.30;99.90
22071;DHT22;11200;51.488;6.668;2022-09-09T12:12:26;20.30;99.90
22071;DHT22;11200;51.488;6.668;2022-09-09T12:14:59;20.30;99.90
22071;DHT22;11200;51.488;6.668;2022-09-09T12:17:27;20.30;99.90
22071;DHT22;11200;51.488;6.668;2022-09-09T12:20:02;20.40;99.90
22071;DHT22;11200;51.488;6.668;2022-09-09T12:28:20;20.50;99.90
22071;DHT22;11200;51.488;6.668;2022-09-09T12:33:39;20.50;99.90
22071;DHT22;11200;51.488;6.668;2022-09-09T12:36:14;20.50;99.90
22071;DHT22;11200;51.488;6.668;2022-09-09T12:38:42;20.50;99.90
22071;DHT22;11200;51.488;6.668;2022-09-09T12:41:28;20.50;99.90
22071;DHT22;11200;51.488;6.668;2022-09-09T12:44:08;20.50;99.90
22071;DHT22;11200;51.488;6.668;2022-09-09T12:46:42;20.60;99.90
22071;DHT22;11200;51.488;6.668;2022-09-09T12:51:49;20.60;99.90
22071;DHT22;11200;51.488;6.668;2022-09-09T12:54:15;20.70;99.90
22071;DHT22;11200;51.488;6.668;2022-09-09T12:56:46;20.70;99.90
22071;DHT22;11200;51.488;6.668;2022-09-09T12:59:23;20.70;99.90
22071;DHT22;11200;51.488;6.668;2022-09-09T13:01:59;20.70;99.90
22071;DHT22;11200;51.488;6.668;2022-09-09T13:04:25;20.70;99.90
22071;DHT22;11200;51.488;6.668;2022-09-09T13:06:51;20.70;99.90
22071;DHT22;11200;51.488;6.668;2022-09-09T13:09:18;20.70;99.90
22071;DHT22;11200;51.488;6.668;2022-09-09T13:11:49;20.70;99.90
22071;DHT22;11200;51.488;6.668;2022-09-09T13:14:18;20.70;99.90
22071;DHT22;11200;51.488;6.668;2022-09-09T13:16:56;20.80;99.90
22071;DHT22;11200;51.488;6.668;2022-09-09T13:19:22;20.80;99.90
22071;DHT22;11200;51.488;6.668;2022-09-09T13:21:51;20.80;99.90
22071;DHT22;11200;51.488;6.668;2022-09-09T13:24:32;20.80;99.90
22071;DHT22;11200;51.488;6.668;2022-09-09T13:27:00;20.80;99.90
22071;DHT22;11200;51.488;6.668;2022-09-09T13:29:28;20.90;99.90
22071;DHT22;11200;51.488;6.668;2022-09-09T13:31:54;21.00;99.90
22071;DHT22;11200;51.488;6.668;2022-09-09T13:34:30;20.90;99.90
22071;DHT22;11200;51.488;6.668;2022-09-09T13:37:00;21.00;99.90
22071;DHT22;11200;51.488;6.668;2022-09-09T13:39:33;21.00;99.90
22071;DHT22;11200;51.488;6.668;2022-09-09T13:41:59;21.00;99.90
22071;DHT22;11200;51.488;6.668;2022-09-09T13:44:36;21.00;99.90
22071;DHT22;11200;51.488;6.668;2022-09-09T13:47:18;21.10;99.90
22071;DHT22;11200;51.488;6.668;2022-09-09T13:49:45;21.10;99.90
22071;DHT22;11200;51.488;6.668;2022-09-09T13:52:16;21.10;99.90
22071;DHT22;11200;51.488;6.668;2022-09-09T13:54:47;21.10;99.90
22071;DHT22;11200;51.488;6.668;2022-09-09T13:57:21;21.20;99.90
22071;DHT22;11200;51.488;6.668;2022-09-09T13:59:48;21.20;99.90
22071;DHT22;11200;51.488;6.668;2022-09-09T14:02:15;21.20;99.90
22071;DHT22;11200;51.488;6.668;2022-09-09T14:04:42;21.20;99.90
22071;DHT22;11200;51.488;6.668;2022-09-09T14:07:15;21.20;99.90
22071;DHT22;11200;51.488;6.668;2022-09-09T14:09:41;21.20;99.90
22071;DHT22;11200;51.488;6.668;2022-09-09T14:12:14;21.20;99.90
22071;DHT22;11200;51.488;6.668;2022-09-09T14:14:41;21.20;99.90
22071;DHT22;11200;51.488;6.668;2022-09-09T14:17:08;21.20;99.90
22071;DHT22;11200;51.488;6.668;2022-09-09T14:19:33;21.20;99.90
22071;DHT22;11200;51.488;6.668;2022-09-09T14:21:59;21.20;99.90
22071;DHT22;11200;51.488;6.668;2022-09-09T14:24:26;21.10;99.90
22071;DHT22;11200;51.488;6.668;2022-09-09T14:26:53;21.10;99.90
22071;DHT22;11200;51.488;6.668;2022-09-09T14:29:18;21.00;99.90
22071;DHT22;11200;51.488;6.668;2022-09-09T14:31:44;21.00;99.90
22071;DHT22;11200;51.488;6.668;2022-09-09T14:34:09;21.00;99.90
22071;DHT22;11200;51.488;6.668;2022-09-09T14:36:37;20.90;99.90
22071;DHT22;11200;51.488;6.668;2022-09-09T14:39:03;20.80;99.90
22071;DHT22;11200;51.488;6.668;2022-09-09T14:41:30;20.80;99.90
22071;DHT22;11200;51.488;6.668;2022-09-09T14:43:56;20.70;99.90
22071;DHT22;11200;51.488;6.668;2022-09-09T14:46:22;20.70;99.90
22071;DHT22;11200;51.488;6.668;2022-09-09T14:48:48;20.60;99.90
22071;DHT22;11200;51.488;6.668;2022-09-09T14:51:17;20.50;99.90
22071;DHT22;11200;51.488;6.668;2022-09-09T14:53:43;20.40;99.90
22071;DHT22;11200;51.488;6.668;2022-09-09T14:56:12;20.40;99.90
22071;DHT22;11200;51.488;6.668;2022-09-09T14:58:38;20.30;99.90
22071;DHT22;11200;51.488;6.668;2022-09-09T15:01:08;20.20;99.90
22071;DHT22;11200;51.488;6.668;2022-09-09T15:03:36;20.10;99.90
22071;DHT22;11200;51.488;6.668;2022-09-09T15:06:10;20.00;99.90
22071;DHT22;11200;51.488;6.668;2022-09-09T15:08:37;19.90;99.90
22071;DHT22;11200;51.488;6.668;2022-09-09T15:11:04;19.80;99.90
22071;DHT22;11200;51.488;6.668;2022-09-09T15:13:30;19.80;99.90
22071;DHT22;11200;51.488;6.668;2022-09-09T15:15:56;19.70;99.90
22071;DHT22;11200;51.488;6.668;2022-09-09T15:18:28;19.70;99.90
22071;DHT22;11200;51.488;6.668;2022-09-09T15:20:54;19.60;99.90
22071;DHT22;11200;51.488;6.668;2022-09-09T15:23:20;19.60;99.90
22071;DHT22;11200;51.488;6.668;2022-09-09T15:25:53;19.50;99.90
22071;DHT22;11200;51.488;6.668;2022-09-09T15:28:19;19.40;99.90
22071;DHT22;11200;51.488;6.668;2022-09-09T15:30:48;19.40;99.90
22071;DHT22;11200;51.488;6.668;2022-09-09T15:33:13;19.30;99.90
22071;DHT22;11200;51.488;6.668;2022-09-09T15:35:39;19.30;99.90
22071;DHT22;11200;51.488;6.668;2022-09-09T15:38:05;19.30;99.90
22071;DHT22;11200;51.488;6.668;2022-09-09T15:40:31;19.30;99.90
22071;DHT22;11200;51.488;6.668;2022-09-09T15:42:58;19.30;99.90
22071;DHT22;11200;51.488;6.668;2022-09-09T15:45:23;19.30;99.90
22071;DHT22;11200;51.488;6.668;2022-09-09T15:47:49;19.30;99.90
22071;DHT22;11200;51.488;6.668;2022-09-09T15:50:15;19.30;99.90
22071;DHT22;11200;51.488;6.668;2022-09-09T15:52:40;19.30;99.90
22071;DHT22;11200;51.488;6.668;2022-09-09T15:55:06;19.30;99.90
22071;DHT22;11200;51.488;6.668;2022-09-09T15:57:34;19.30;99.90
22071;DHT22;11200;51.488;6.668;2022-09-09T16:00:00;19.30;99.90
22071;DHT22;11200;51.488;6.668;2022-09-09T16:02:26;19.30;99.90
22071;DHT22;11200;51.488;6.668;2022-09-09T16:04:52;19.30;99.90
22071;DHT22;11200;51.488;6.668;2022-09-09T16:07:18;19.30;99.90
22071;DHT22;11200;51.488;6.668;2022-09-09T16:09:43;19.30;99.90
22071;DHT22;11200;51.488;6.668;2022-09-09T16:12:09;19.30;99.90
22071;DHT22;11200;51.488;6.668;2022-09-09T16:14:37;19.30;99.90
22071;DHT22;11200;51.488;6.668;2022-09-09T16:17:04;19.30;99.90
22071;DHT22;11200;51.488;6.668;2022-09-09T16:19:31;19.30;99.90
22071;DHT22;11200;51.488;6.668;2022-09-09T16:21:57;19.30;99.90
22071;DHT22;11200;51.488;6.668;2022-09-09T16:24:23;19.30;99.90
22071;DHT22;11200;51.488;6.668;2022-09-09T16:26:51;19.30;99.90
22071;DHT22;11200;51.488;6.668;2022-09-09T16:29:18;19.20;99.90
22071;DHT22;11200;51.488;6.668;2022-09-09T16:31:45;19.30;99.90
22071;DHT22;11200;51.488;6.668;2022-09-09T16:34:12;19.20;99.90
22071;DHT22;11200;51.488;6.668;2022-09-09T16:36:39;19.20;99.90
22071;DHT22;11200;51.488;6.668;2022-09-09T16:39:11;19.20;99.90
22071;DHT22;11200;51.488;6.668;2022-09-09T16:41:38;19.20;99.90
22071;DHT22;11200;51.488;6.668;2022-09-09T16:44:06;19.10;99.90
22071;DHT22;11200;51.488;6.668;2022-09-09T16:46:35;19.10;99.90
22071;DHT22;11200;51.488;6.668;2022-09-09T16:49:02;19.10;99.90
22071;DHT22;11200;51.488;6.668;2022-09-09T16:51:39;19.10;99.90
22071;DHT22;11200;51.488;6.668;2022-09-09T16:54:07;19.00;99.90
22071;DHT22;11200;51.488;6.668;2022-09-09T16:56:35;19.00;99.90
22071;DHT22;11200;51.488;6.668;2022-09-09T16:59:05;19.00;99.90
22071;DHT22;11200;51.488;6.668;2022-09-09T17:01:33;19.00;99.90
22071;DHT22;11200;51.488;6.668;2022-09-09T17:04:05;19.00;99.90
22071;DHT22;11200;51.488;6.668;2022-09-09T17:06:31;18.90;99.90
22071;DHT22;11200;51.488;6.668;2022-09-09T17:08:59;19.00;99.90
22071;DHT22;11200;51.488;6.668;2022-09-09T17:11:27;18.90;99.90
22071;DHT22;11200;51.488;6.668;2022-09-09T17:13:54;18.90;99.90
22071;DHT22;11200;51.488;6.668;2022-09-09T17:16:22;19.00;99.90
22071;DHT22;11200;51.488;6.668;2022-09-09T17:18:52;18.80;99.90
22071;DHT22;11200;51.488;6.668;2022-09-09T17:21:22;18.80;99.90
22071;DHT22;11200;51.488;6.668;2022-09-09T17:23:52;18.80;99.90
22071;DHT22;11200;51.488;6.668;2022-09-09T17:26:20;18.80;99.90
22071;DHT22;11200;51.488;6.668;2022-09-09T17:28:47;18.80;99.90
22071;DHT22;11200;51.488;6.668;2022-09-09T17:31:14;18.80;99.90
22071;DHT22;11200;51.488;6.668;2022-09-09T17:33:43;18.80;99.90
22071;DHT22;11200;51.488;6.668;2022-09-09T17:36:12;18.70;99.90
22071;DHT22;11200;51.488;6.668;2022-09-09T17:38:38;18.70;99.90